Time;durP1;ratioP1;P1;durP2;ratioP2;P2;SDS_P1;SDS_P2;PMS_P1;PMS_P2;Temp;Humidity;BMP_temperature;BMP_pressure;BME280_temperature;BME280_humidity;BME280_pressure;Samples;Min_cycle;Max_cycle;Signal;HPM_P1;HPM_P2
2022/04/15 00:00:42;;;;;;;8.85;4.15;;;;;;;7.70;63.19;100740.59;5590647;31;34022;-63
2022/04/15 00:03:45;;;;;;;9.77;4.60;;;;;;;7.87;62.41;100746.00;5590528;31;34529;-64
2022/04/15 00:06:47;;;;;;;11.50;4.50;;;;;;;7.75;62.71;100744.47;5589961;31;33111;-63
2022/04/15 00:09:51;;;;;;;11.50;4.40;;;;;;;7.71;62.63;100737.81;5589518;31;34267;-63
2022/04/15 00:12:54;;;;;;;13.70;4.10;;;;;;;7.62;63.41;100730.75;5590525;31;34016;-63
2022/04/15 00:15:59;;;;;;;8.18;4.30;;;;;;;7.56;63.71;100735.72;5589578;31;34054;-63
2022/04/15 00:19:02;;;;;;;11.80;4.72;;;;;;;7.59;63.66;100728.37;5589495;31;34642;-63
2022/04/15 00:22:04;;;;;;;9.50;4.53;;;;;;;7.62;64.10;100720.19;5590490;31;34206;-63
2022/04/15 00:25:10;;;;;;;9.93;4.18;;;;;;;7.60;64.26;100721.31;5590436;31;33954;-63
2022/04/15 00:28:12;;;;;;;6.93;3.83;;;;;;;7.55;63.07;100716.41;5590178;31;33933;-63
2022/04/15 00:31:15;;;;;;;10.07;4.30;;;;;;;7.49;62.98;100709.06;5589752;31;33866;-63
2022/04/15 00:34:18;;;;;;;10.60;4.37;;;;;;;7.55;63.17;100711.13;5590664;31;34017;-64
2022/04/15 00:37:21;;;;;;;7.53;3.92;;;;;;;7.41;64.55;100712.41;5590334;31;33864;-62
2022/04/15 00:40:23;;;;;;;7.72;4.12;;;;;;;7.33;64.01;100712.28;5590253;31;34170;-64
2022/04/15 00:43:26;;;;;;;7.15;3.55;;;;;;;7.29;64.80;100707.41;5590215;31;35215;-64
2022/04/15 00:46:29;;;;;;;10.10;3.72;;;;;;;7.25;64.08;100708.66;5590307;31;34504;-64
2022/04/15 00:49:31;;;;;;;12.07;4.70;;;;;;;7.23;64.27;100706.16;5590158;31;34011;-64
2022/04/15 00:52:38;;;;;;;7.32;3.92;;;;;;;7.16;64.83;100702.41;5590258;31;33912;-63
2022/04/15 00:55:42;;;;;;;9.68;3.97;;;;;;;7.14;64.18;100692.94;5590588;31;33967;-63
2022/04/15 00:58:46;;;;;;;8.20;4.80;;;;;;;7.15;63.96;100692.81;5590045;31;34596;-63
2022/04/15 01:01:50;;;;;;;8.15;3.72;;;;;;;7.15;63.84;100692.81;5589517;31;32434;-63
2022/04/15 01:04:55;;;;;;;7.60;3.80;;;;;;;7.11;64.44;100695.88;5590028;31;33982;-63
2022/04/15 01:07:58;;;;;;;7.30;4.07;;;;;;;7.06;64.69;100695.47;5589478;31;32571;-63
2022/04/15 01:11:03;;;;;;;8.52;4.55;;;;;;;7.03;65.19;100687.78;5589801;31;34198;-63
2022/04/15 01:14:08;;;;;;;7.03;4.00;;;;;;;7.00;65.69;100694.19;5589240;31;34228;-63
2022/04/15 01:17:11;;;;;;;10.48;4.37;;;;;;;6.98;65.70;100677.66;5589231;31;34113;-63
2022/04/15 01:20:14;;;;;;;6.75;3.90;;;;;;;6.93;67.05;100678.06;5589939;31;34027;-63
2022/04/15 01:23:18;;;;;;;8.57;4.22;;;;;;;6.90;67.25;100685.44;5589357;31;33355;-63
2022/04/15 01:26:20;;;;;;;10.85;4.55;;;;;;;6.86;67.62;100679.59;5589775;31;34056;-63
2022/04/15 01:29:27;;;;;;;10.32;4.15;;;;;;;6.83;68.09;100681.66;5589713;31;33940;-63
2022/04/15 01:32:29;;;;;;;9.10;4.57;;;;;;;6.82;68.29;100669.47;5589259;31;32433;-63
2022/04/15 01:35:33;;;;;;;10.05;4.20;;;;;;;6.78;68.54;100676.78;5590167;31;33852;-62
2022/04/15 01:38:36;;;;;;;7.60;4.40;;;;;;;6.77;68.33;100676.97;5589805;31;33981;-63
2022/04/15 01:41:39;;;;;;;7.47;4.18;;;;;;;6.82;67.92;100670.31;5589820;31;34310;-63
2022/04/15 01:44:43;;;;;;;7.97;3.95;;;;;;;6.89;68.85;100679.31;5589704;31;34025;-63
2022/04/15 01:47:46;;;;;;;10.00;4.53;;;;;;;6.82;68.76;100672.09;5588785;31;32577;-63
2022/04/15 01:50:48;;;;;;;6.60;4.00;;;;;;;7.02;67.18;100667.69;5589549;31;34031;-63
2022/04/15 01:53:53;;;;;;;10.88;4.03;;;;;;;6.95;66.46;100668.22;5575719;31;32721;-64
2022/04/15 01:56:56;;;;;;;8.30;3.85;;;;;;;6.81;67.41;100668.63;5589545;31;35173;-63
2022/04/15 01:59:59;;;;;;;8.75;3.55;;;;;;;6.80;67.93;100674.03;5589497;31;33876;-64
2022/04/15 02:03:02;;;;;;;7.15;3.67;;;;;;;6.71;67.95;100672.22;5588585;31;33768;-63
2022/04/15 02:06:06;;;;;;;10.43;4.30;;;;;;;6.61;70.48;100666.09;5589528;31;33912;-63
2022/04/15 02:09:08;;;;;;;8.05;3.85;;;;;;;6.61;71.82;100660.81;5589572;31;34588;-63
2022/04/15 02:12:11;;;;;;;7.78;3.80;;;;;;;6.60;70.87;100669.69;5588551;31;34173;-63
2022/04/15 02:15:14;;;;;;;6.62;3.58;;;;;;;6.66;70.29;100664.72;5589432;31;34596;-63
2022/04/15 02:18:17;;;;;;;6.45;3.75;;;;;;;6.57;70.23;100668.16;5589345;31;34319;-63
2022/04/15 02:21:19;;;;;;;8.90;4.05;;;;;;;6.43;70.28;100666.75;5589342;31;34034;-63
2022/04/15 02:24:22;;;;;;;7.07;4.03;;;;;;;6.33;70.76;100670.31;5589630;31;35152;-63
2022/04/15 02:27:24;;;;;;;9.30;4.50;;;;;;;6.35;70.25;100671.84;5589233;31;34005;-64
2022/04/15 02:30:27;;;;;;;8.70;4.15;;;;;;;6.36;69.59;100667.41;5588944;31;34616;-63
2022/04/15 02:33:30;;;;;;;7.32;3.85;;;;;;;6.39;68.83;100661.88;5589232;31;33709;-63
2022/04/15 02:36:32;;;;;;;6.00;3.78;;;;;;;6.29;69.11;100656.59;5588488;31;34244;-63
2022/04/15 02:39:35;;;;;;;5.47;3.50;;;;;;;6.22;68.92;100650.16;5589111;31;34000;-62
2022/04/15 02:42:38;;;;;;;7.70;3.62;;;;;;;6.14;69.22;100650.00;5589013;31;34822;-63
2022/04/15 02:45:42;;;;;;;13.82;4.45;;;;;;;6.05;70.27;100648.16;5589050;31;34031;-64
2022/04/15 02:48:45;;;;;;;7.62;3.75;;;;;;;5.98;71.30;100650.50;5588919;31;35898;-63
2022/04/15 02:51:48;;;;;;;8.30;3.67;;;;;;;5.94;71.40;100653.50;5588936;31;33977;-63
2022/04/15 02:54:51;;;;;;;8.15;4.12;;;;;;;5.88;73.73;100651.41;5587759;31;33624;-64
2022/04/15 02:57:53;;;;;;;9.15;3.97;;;;;;;5.90;75.22;100663.50;5588710;31;33967;-63
2022/04/15 03:00:56;;;;;;;7.90;4.25;;;;;;;6.04;73.58;100654.41;5587962;31;32720;-63
2022/04/15 03:03:59;;;;;;;6.57;4.07;;;;;;;6.00;74.02;100659.06;5588788;31;34057;-63
2022/04/15 03:07:02;;;;;;;6.70;3.72;;;;;;;5.92;73.37;100661.53;5588010;31;33302;-63
2022/04/15 03:10:06;;;;;;;6.10;3.47;;;;;;;5.90;74.10;100660.00;5588471;31;34688;-63
2022/04/15 03:13:09;;;;;;;6.47;3.50;;;;;;;5.83;73.57;100659.66;5587753;31;35380;-63
2022/04/15 03:16:12;;;;;;;7.28;4.20;;;;;;;5.87;73.78;100669.00;5588453;31;35273;-63
2022/04/15 03:19:15;;;;;;;6.18;3.60;;;;;;;5.85;73.79;100656.91;5587864;31;33770;-63
2022/04/15 03:22:19;;;;;;;6.57;3.67;;;;;;;5.80;73.80;100657.31;5588381;31;34695;-63
2022/04/15 03:25:22;;;;;;;11.00;4.47;;;;;;;5.77;74.07;100659.34;5588362;31;34147;-63
2022/04/15 03:28:24;;;;;;;9.98;4.03;;;;;;;5.73;74.50;100666.66;5587417;31;33222;-64
2022/04/15 03:31:27;;;;;;;9.32;4.03;;;;;;;5.66;75.25;100666.34;5586945;31;34036;-63
2022/04/15 03:34:30;;;;;;;9.40;3.85;;;;;;;5.68;75.86;100653.06;5587529;31;33260;-63
2022/04/15 03:37:33;;;;;;;7.10;3.90;;;;;;;5.66;75.76;100649.75;5587979;31;35138;-64
2022/04/15 03:40:35;;;;;;;11.63;4.22;;;;;;;5.61;76.40;100647.50;5587929;31;35338;-63
2022/04/15 03:43:38;;;;;;;8.77;4.20;;;;;;;5.61;76.71;100652.75;5587823;31;34901;-63
2022/04/15 03:46:41;;;;;;;11.15;4.62;;;;;;;5.61;77.35;100655.41;5587885;31;33966;-63
2022/04/15 03:49:45;;;;;;;7.32;4.40;;;;;;;5.64;78.49;100646.41;5587826;31;34008;-63
2022/04/15 03:52:49;;;;;;;11.32;4.37;;;;;;;5.59;78.48;100645.94;5586943;31;32682;-63
2022/04/15 03:55:52;;;;;;;7.25;4.28;;;;;;;5.57;78.51;100646.06;5588026;31;33313;-63
2022/04/15 03:58:54;;;;;;;8.68;4.47;;;;;;;5.57;78.53;100647.84;5587678;31;33896;-63
2022/04/15 04:01:57;;;;;;;9.23;4.50;;;;;;;5.57;78.95;100645.22;5587712;31;33984;-64
2022/04/15 04:05:00;;;;;;;10.82;4.75;;;;;;;5.59;79.22;100643.31;5588439;31;33929;-64
2022/04/15 04:08:03;;;;;;;8.60;4.18;;;;;;;5.58;80.77;100639.84;5590775;31;33858;-63
2022/04/15 04:11:06;;;;;;;11.73;5.55;;;;;;;5.67;81.13;100641.69;5589628;31;33931;-64
2022/04/15 04:14:08;;;;;;;9.15;4.85;;;;;;;5.71;81.17;100639.66;5590384;31;34105;-63
2022/04/15 04:17:17;;;;;;;10.27;4.87;;;;;;;5.73;81.56;100639.50;5590522;31;34625;-63
2022/04/15 04:20:19;;;;;;;8.55;4.85;;;;;;;5.76;81.47;100642.69;5590472;31;34047;-64
2022/04/15 04:23:22;;;;;;;10.98;5.12;;;;;;;5.86;81.90;100646.22;5590506;31;33971;-64
2022/04/15 04:26:25;;;;;;;11.15;5.20;;;;;;;5.97;82.06;100650.59;5590323;31;34580;-64
2022/04/15 04:29:28;;;;;;;11.77;5.40;;;;;;;6.06;82.00;100645.38;5590627;31;35144;-64
2022/04/15 04:32:30;;;;;;;9.43;4.40;;;;;;;6.21;82.57;100637.94;5589268;31;34043;-63
2022/04/15 04:35:33;;;;;;;9.20;4.72;;;;;;;6.35;81.73;100649.91;5590293;31;33914;-63
2022/04/15 04:38:36;;;;;;;8.35;5.05;;;;;;;6.45;81.59;100651.63;5589301;31;32822;-64
2022/04/15 04:41:39;;;;;;;8.23;4.80;;;;;;;6.58;82.95;100661.09;5589343;31;34081;-64
2022/04/15 04:44:42;;;;;;;9.85;4.28;;;;;;;6.72;80.60;100653.63;5589207;31;33339;-64
2022/04/15 04:47:46;;;;;;;8.82;4.43;;;;;;;6.91;79.33;100648.38;5590224;31;33950;-64
2022/04/15 04:50:49;;;;;;;8.73;4.25;;;;;;;7.08;78.70;100656.56;5589453;31;32546;-64
2022/04/15 04:53:52;;;;;;;10.65;4.43;;;;;;;7.18;78.11;100654.75;5589219;31;32546;-64
2022/04/15 04:56:55;;;;;;;8.45;4.40;;;;;;;7.22;78.07;100661.41;5589478;31;33277;-64
2022/04/15 04:59:58;;;;;;;9.65;4.43;;;;;;;7.27;78.57;100667.13;5590261;31;34643;-64
2022/04/15 05:03:01;;;;;;;9.10;4.57;;;;;;;7.35;79.29;100677.81;5590509;31;33945;-64
2022/04/15 05:06:04;;;;;;;8.05;4.28;;;;;;;7.55;76.35;100682.09;5590059;31;34178;-64
2022/04/15 05:09:07;;;;;;;8.60;4.90;;;;;;;7.60;76.49;100671.94;5590342;31;34198;-64
2022/04/15 05:12:10;;;;;;;8.50;4.50;;;;;;;7.55;77.87;100671.53;5588874;31;33280;-64
2022/04/15 05:15:12;;;;;;;11.50;5.40;;;;;;;7.55;77.12;100673.38;5589314;31;34406;-64
2022/04/15 05:18:16;;;;;;;10.30;5.20;;;;;;;7.61;75.86;100688.63;5589296;31;32548;-64
2022/04/15 05:21:18;;;;;;;11.45;5.35;;;;;;;7.60;77.03;100674.59;5589783;31;33995;-63
2022/04/15 05:24:21;;;;;;;10.48;5.30;;;;;;;7.78;77.21;100677.34;5589931;31;35243;-64
2022/04/15 05:27:24;;;;;;;10.68;5.85;;;;;;;7.84;77.25;100684.72;5589009;31;33937;-64
2022/04/15 05:30:26;;;;;;;11.70;5.30;;;;;;;7.90;77.54;100681.47;5589837;31;34039;-64
2022/04/15 05:33:29;;;;;;;9.43;4.80;;;;;;;8.01;76.66;100678.66;5589747;31;34137;-63
2022/04/15 05:36:32;;;;;;;10.48;5.72;;;;;;;7.95;76.27;100678.41;5589187;31;33235;-64
2022/04/15 05:39:34;;;;;;;9.98;5.37;;;;;;;8.02;76.28;100682.16;5588582;31;32851;-64
2022/04/15 05:42:37;;;;;;;9.18;5.15;;;;;;;8.16;75.12;100681.69;5575762;31;35884;-64
2022/04/15 05:45:40;;;;;;;12.75;5.70;;;;;;;8.18;73.75;100675.25;5588591;31;33161;-65
2022/04/15 05:48:43;;;;;;;14.38;5.20;;;;;;;8.27;73.36;100670.94;5588868;31;33176;-64
2022/04/15 05:51:45;;;;;;;11.38;5.00;;;;;;;8.61;71.44;100674.69;5575861;31;32503;-64
2022/04/15 05:54:48;;;;;;;13.43;5.60;;;;;;;8.92;70.20;100672.53;5588809;31;32532;-64
2022/04/15 05:57:51;;;;;;;11.15;5.90;;;;;;;9.22;68.44;100667.84;5589924;31;33968;-64
2022/04/15 06:00:54;;;;;;;10.43;5.45;;;;;;;9.42;67.91;100664.88;5588853;31;32492;-64
2022/04/15 06:03:57;;;;;;;10.80;5.80;;;;;;;9.77;67.13;100671.09;5589564;31;34642;-64
2022/04/15 06:07:00;;;;;;;13.20;5.78;;;;;;;9.98;65.81;100671.56;5588918;31;32629;-65
2022/04/15 06:10:04;;;;;;;10.48;5.80;;;;;;;10.06;63.86;100673.44;5589544;31;34623;-64
2022/04/15 06:13:10;;;;;;;10.45;5.30;;;;;;;10.33;62.88;100670.63;5588723;31;32423;-64
2022/04/15 06:16:17;;;;;;;9.00;5.12;;;;;;;10.56;61.35;100679.66;5589304;31;34261;-63
2022/04/15 06:19:20;;;;;;;12.68;4.68;;;;;;;10.59;61.86;100684.66;5588770;31;33262;-64
2022/04/15 06:22:27;;;;;;;9.80;5.10;;;;;;;10.45;61.15;100679.97;5589360;31;34597;-64
2022/04/15 06:25:29;;;;;;;8.35;4.95;;;;;;;10.42;60.74;100682.91;5589510;31;34198;-65
2022/04/15 06:28:32;;;;;;;10.23;5.28;;;;;;;10.39;60.12;100683.25;5588302;31;33951;-65
2022/04/15 06:31:35;;;;;;;12.88;6.47;;;;;;;10.61;59.25;100676.53;5588213;31;32470;-63
2022/04/15 06:34:38;;;;;;;12.90;5.18;;;;;;;10.75;56.54;100681.22;5587996;31;32810;-64
2022/04/15 06:37:40;;;;;;;14.18;4.72;;;;;;;11.06;56.06;100676.97;5589160;31;34309;-64
2022/04/15 06:40:43;;;;;;;8.48;5.00;;;;;;;11.42;54.53;100679.34;5588287;31;32961;-64
2022/04/15 06:43:45;;;;;;;8.52;5.22;;;;;;;11.68;53.76;100672.00;5588039;31;32407;-64
2022/04/15 06:46:48;;;;;;;9.68;5.10;;;;;;;12.23;53.17;100668.59;5588775;31;34286;-64
2022/04/15 06:49:51;;;;;;;10.95;5.50;;;;;;;12.63;51.72;100661.28;5587955;31;32310;-64
2022/04/15 06:52:54;;;;;;;8.10;4.80;;;;;;;13.48;49.52;100663.91;5588841;31;34557;-64
2022/04/15 06:55:56;;;;;;;10.48;5.35;;;;;;;14.28;46.18;100656.09;5587683;31;32478;-64
2022/04/15 06:58:59;;;;;;;9.63;5.47;;;;;;;15.40;43.97;100654.69;5588676;31;34282;-64
2022/04/15 07:02:02;;;;;;;9.15;4.78;;;;;;;15.52;42.00;100654.03;5575130;31;32892;-65
2022/04/15 07:05:09;;;;;;;8.60;5.30;;;;;;;15.79;39.14;100662.25;5587640;31;32972;-64
2022/04/15 07:08:11;;;;;;;9.82;5.10;;;;;;;15.84;39.15;100657.13;5587680;31;32652;-65
2022/04/15 07:11:14;;;;;;;9.23;5.10;;;;;;;15.18;40.38;100660.06;5587653;31;32876;-65
2022/04/15 07:14:17;;;;;;;9.05;5.25;;;;;;;14.86;41.22;100657.87;5588341;31;35282;-65
2022/04/15 07:17:20;;;;;;;9.30;5.60;;;;;;;15.03;41.81;100658.47;5588295;31;34918;-65
2022/04/15 07:20:23;;;;;;;11.65;5.53;;;;;;;16.11;39.27;100660.81;5588574;31;33924;-65
2022/04/15 07:23:26;;;;;;;13.43;5.87;;;;;;;17.55;37.03;100661.31;5587467;31;32512;-65
2022/04/15 07:26:29;;;;;;;13.57;5.47;;;;;;;18.56;34.05;100667.16;5586893;31;33040;-66
2022/04/15 07:29:32;;;;;;;12.50;5.32;;;;;;;18.15;33.87;100670.16;5587189;31;32597;-66
2022/04/15 07:32:35;;;;;;;9.20;5.68;;;;;;;17.98;34.46;100671.63;5588023;31;34104;-66
2022/04/15 07:35:38;;;;;;;8.52;4.93;;;;;;;17.40;35.00;100660.69;5587310;31;32544;-65
2022/04/15 07:38:40;;;;;;;8.50;4.93;;;;;;;17.22;35.46;100669.31;5588358;31;33907;-66
2022/04/15 07:41:45;;;;;;;10.18;5.03;;;;;;;17.03;34.98;100663.94;5577104;31;32670;-66
2022/04/15 07:44:51;;;;;;;7.72;5.35;;;;;;;16.88;36.58;100670.28;5590840;31;33909;-65
2022/04/15 07:47:54;;;;;;;10.38;5.53;;;;;;;16.50;36.79;100682.47;5590589;31;34274;-64
2022/04/15 07:50:58;;;;;;;8.38;4.93;;;;;;;16.67;36.37;100674.94;5590596;31;33997;-65
2022/04/15 07:54:03;;;;;;;11.55;5.15;;;;;;;17.93;34.17;100683.00;5589801;31;34070;-65
2022/04/15 07:57:05;;;;;;;8.98;5.30;;;;;;;17.89;33.42;100686.28;5589973;31;33615;-65
2022/04/15 08:00:09;;;;;;;9.30;5.55;;;;;;;18.16;32.85;100679.84;5590524;31;34616;-65
2022/04/15 08:03:13;;;;;;;7.87;4.93;;;;;;;18.01;33.02;100696.19;5590441;31;33935;-65
2022/04/15 08:06:15;;;;;;;8.10;4.82;;;;;;;18.66;32.28;100699.78;5590408;31;34628;-65
2022/04/15 08:09:19;;;;;;;12.07;5.15;;;;;;;18.08;31.63;100686.28;5576779;31;32807;-64
2022/04/15 08:12:21;;;;;;;12.13;5.20;;;;;;;18.06;31.07;100695.56;5589761;31;33763;-65
2022/04/15 08:15:24;;;;;;;10.10;5.30;;;;;;;18.30;31.29;100694.09;5590379;31;33881;-65
2022/04/15 08:18:27;;;;;;;9.00;5.55;;;;;;;18.25;30.91;100695.53;5589131;31;32811;-65
2022/04/15 08:21:29;;;;;;;16.27;5.35;;;;;;;18.83;30.00;100697.44;5589704;31;33251;-65
2022/04/15 08:24:32;;;;;;;10.18;5.55;;;;;;;19.11;30.38;100692.53;5589661;31;32531;-65
2022/04/15 08:27:35;;;;;;;9.90;5.43;;;;;;;19.22;30.23;100693.72;5589265;31;33954;-66
2022/04/15 08:30:38;;;;;;;11.27;4.97;;;;;;;19.22;30.17;100699.09;5590099;31;34554;-65
2022/04/15 08:33:41;;;;;;;10.27;5.55;;;;;;;19.59;29.79;100689.34;5589282;31;34575;-65
2022/04/15 08:36:43;;;;;;;12.88;5.65;;;;;;;19.55;30.11;100688.97;5589169;31;33263;-65
2022/04/15 08:39:46;;;;;;;8.40;5.12;;;;;;;19.69;30.38;100692.38;5589255;31;34275;-66
2022/04/15 08:42:50;;;;;;;11.20;4.90;;;;;;;19.81;29.31;100694.13;5589101;31;32891;-66
2022/04/15 08:45:53;;;;;;;9.80;5.43;;;;;;;20.55;29.03;100693.19;5589254;31;32715;-65
2022/04/15 08:48:57;;;;;;;7.60;5.00;;;;;;;20.81;28.38;100695.59;5587964;31;33507;-65
2022/04/15 08:52:00;;;;;;;6.82;5.03;;;;;;;21.58;28.53;100696.59;5588187;31;33407;-67
2022/04/15 08:55:04;;;;;;;10.38;5.15;;;;;;;23.18;25.51;100696.06;5587957;31;32753;-66
2022/04/15 08:58:07;;;;;;;9.32;5.12;;;;;;;22.56;26.52;100687.75;5589226;31;34192;-66
2022/04/15 09:01:10;;;;;;;10.00;4.93;;;;;;;22.66;26.32;100689.84;5589083;31;32740;-66
2022/04/15 09:04:14;;;;;;;9.50;5.65;;;;;;;21.55;28.16;100686.22;5589938;31;35168;-65
2022/04/15 09:07:18;;;;;;;9.38;5.05;;;;;;;21.41;28.74;100686.66;5589530;31;34219;-65
2022/04/15 09:10:21;;;;;;;10.48;6.22;;;;;;;21.12;28.87;100682.91;5589180;31;33954;-66
2022/04/15 09:13:31;;;;;;;7.68;4.68;;;;;;;21.98;27.91;100683.25;5589043;31;33380;-66
2022/04/15 09:16:41;;;;;;;9.02;4.82;;;;;;;21.77;27.67;100689.19;5589665;31;33975;-66
2022/04/15 09:19:45;;;;;;;10.80;4.57;;;;;;;22.91;26.35;100684.97;5589521;31;34177;-66
2022/04/15 09:22:54;;;;;;;7.32;4.18;;;;;;;22.82;26.81;100684.53;5563253;31;32479;-66
2022/04/15 09:25:58;;;;;;;6.70;3.95;;;;;;;21.85;27.68;100675.34;5575676;31;32847;-66
2022/04/15 09:29:01;;;;;;;8.43;4.07;;;;;;;21.06;28.82;100667.63;5588117;31;32289;-67
2022/04/15 09:32:09;;;;;;;6.07;3.60;;;;;;;20.62;30.10;100680.44;5588808;31;32994;-66
2022/04/15 09:35:16;;;;;;;6.65;3.75;;;;;;;20.04;30.33;100665.75;5588782;31;32712;-65
2022/04/15 09:38:19;;;;;;;7.53;3.55;;;;;;;20.46;29.61;100674.84;5588799;31;32781;-66
2022/04/15 09:41:23;;;;;;;7.28;3.47;;;;;;;19.85;30.17;100679.16;5575893;31;33154;-65
2022/04/15 09:44:31;;;;;;;8.73;3.58;;;;;;;20.01;30.23;100675.09;5589547;31;34624;-64
2022/04/15 09:47:34;;;;;;;5.00;3.17;;;;;;;19.99;29.36;100674.50;5589478;31;34701;-65
2022/04/15 09:50:39;;;;;;;6.40;3.25;;;;;;;19.91;28.74;100677.47;5588770;31;32631;-66
2022/04/15 09:53:42;;;;;;;5.03;3.17;;;;;;;19.33;29.01;100674.19;5575681;31;32658;-66
2022/04/15 09:56:46;;;;;;;6.10;3.42;;;;;;;19.69;28.10;100666.28;5588653;31;33330;-66
2022/04/15 09:59:52;;;;;;;8.05;2.90;;;;;;;19.39;28.40;100670.63;5588889;31;32502;-65
2022/04/15 10:02:57;;;;;;;5.55;3.47;;;;;;;20.10;28.03;100671.06;5589340;31;33968;-65
2022/04/15 10:06:01;;;;;;;6.70;3.33;;;;;;;20.96;26.75;100670.09;5588571;31;33322;-65
2022/04/15 10:09:24;;;;;;;6.15;3.05;;;;;;;20.22;27.31;100668.47;5589766;31;34539;-65
2022/04/15 10:12:29;;;;;;;7.55;4.00;;;;;;;19.42;28.73;100654.88;5589267;31;33859;-65
2022/04/15 10:15:32;;;;;;;6.28;3.20;;;;;;;19.35;29.07;100639.81;5588396;31;32688;-65
2022/04/15 10:18:36;;;;;;;9.32;3.30;;;;;;;18.85;28.28;100638.91;5588361;31;33361;-64
2022/04/15 10:21:45;;;;;;;6.47;3.40;;;;;;;19.30;27.76;100635.09;5588167;31;32509;-64
2022/04/15 10:24:48;;;;;;;5.87;3.53;;;;;;;19.80;27.53;100641.31;5588199;31;34129;-65
2022/04/15 10:27:51;;;;;;;5.72;3.15;;;;;;;19.95;26.48;100646.34;5581090;31;230768;-64
2022/04/15 10:31:05;;;;;;;6.28;3.00;;;;;;;19.60;27.61;100653.31;5588158;31;32630;-65
2022/04/15 10:34:11;;;;;;;6.22;3.37;;;;;;;19.60;27.75;100658.72;5589099;31;33954;-65
2022/04/15 10:37:14;;;;;;;6.50;3.10;;;;;;;19.52;28.62;100649.03;5588495;31;32565;-65
2022/04/15 10:40:29;;;;;;;5.15;2.90;;;;;;;20.27;27.89;100644.37;5588505;31;33936;-65
2022/04/15 10:43:32;;;;;;;4.55;2.50;;;;;;;20.31;27.55;100659.91;5588324;31;34670;-65
2022/04/15 10:46:36;;;;;;;5.15;2.70;;;;;;;19.95;27.30;100657.94;5588046;31;33183;-65
2022/04/15 10:49:54;;;;;;;5.00;2.70;;;;;;;20.53;26.40;100654.03;5587963;31;34048;-65
2022/04/15 10:53:15;;;;;;;4.95;2.72;;;;;;;21.13;26.02;100665.69;5587946;31;33020;-66
2022/04/15 10:56:23;;;;;;;5.57;3.03;;;;;;;21.49;25.12;100657.47;5588734;31;34061;-64
2022/04/15 11:03:01;;;;;;;8.85;2.67;;;;;;;21.16;25.50;100654.44;5587486;31;33584;-65
2022/04/15 11:06:09;;;;;;;6.57;2.75;;;;;;;20.43;26.83;100664.53;5587685;31;33206;-64
2022/04/15 11:09:32;;;;;;;5.12;2.70;;;;;;;19.99;26.72;100663.75;5588765;31;35250;-65
2022/04/15 11:12:38;;;;;;;12.18;3.00;;;;;;;19.07;28.30;100651.78;5588954;31;35137;-64
2022/04/15 11:15:57;;;;;;;4.80;2.60;;;;;;;19.30;28.27;100656.63;5589661;31;32341;-65
2022/04/15 11:19:01;;;;;;;6.35;2.62;;;;;;;18.79;28.87;100645.12;5590995;31;33981;-65
2022/04/15 11:22:04;;;;;;;5.70;2.47;;;;;;;18.82;28.94;100652.78;5590861;31;34619;-65
2022/04/15 11:25:09;;;;;;;7.93;2.80;;;;;;;18.42;30.21;100649.41;5590800;31;34820;-65
2022/04/15 11:28:12;;;;;;;4.60;2.80;;;;;;;18.59;31.27;100645.22;5590668;31;34184;-65
2022/04/15 11:31:28;;;;;;;3.72;2.65;;;;;;;18.46;31.20;100642.56;5590621;31;34475;-65
2022/04/15 11:34:32;;;;;;;4.95;2.80;;;;;;;18.87;30.93;100648.41;5590844;31;34600;-64
2022/04/15 11:37:34;;;;;;;5.05;2.65;;;;;;;19.10;29.97;100655.94;5591162;31;34118;-65
2022/04/15 11:40:38;;;;;;;4.72;2.58;;;;;;;19.40;31.53;100654.28;5590102;31;33363;-65
2022/04/15 11:43:41;;;;;;;9.23;3.22;;;;;;;19.65;29.50;100648.94;5589709;31;32607;-65
2022/04/15 11:46:45;;;;;;;6.03;2.87;;;;;;;19.35;29.72;100656.78;5590688;31;34601;-64
2022/04/15 11:49:52;;;;;;;4.93;3.08;;;;;;;18.79;31.53;100661.25;5577093;31;32490;-65
2022/04/15 11:53:05;;;;;;;5.85;3.30;;;;;;;19.17;31.31;100663.97;5589686;31;33065;-65
2022/04/15 11:56:09;;;;;;;6.97;3.92;;;;;;;18.72;32.46;100655.94;5589493;31;33602;-64
2022/04/15 11:59:13;;;;;;;8.35;3.92;;;;;;;18.98;32.25;100657.63;5589742;31;32251;-65
2022/04/15 12:02:18;;;;;;;5.35;3.45;;;;;;;19.33;32.40;100668.81;5590590;31;35268;-65
2022/04/15 12:05:21;;;;;;;5.85;3.12;;;;;;;19.10;32.90;100666.69;5577167;31;32401;-65
2022/04/15 12:08:25;;;;;;;6.85;3.12;;;;;;;18.67;34.64;100661.13;5590812;31;34545;-66
2022/04/15 12:11:29;;;;;;;7.03;2.62;;;;;;;18.50;34.38;100660.75;5590476;31;34056;-64
2022/04/15 12:14:40;;;;;;;7.62;2.70;;;;;;;18.29;35.59;100662.91;5589265;31;32540;-63
2022/04/15 12:17:43;;;;;;;4.82;2.83;;;;;;;17.88;36.48;100666.69;5589829;31;32432;-64
2022/04/15 12:20:45;;;;;;;5.70;2.70;;;;;;;17.50;38.15;100677.19;5590428;31;34427;-64
2022/04/15 12:24:04;;;;;;;7.47;2.47;;;;;;;16.72;50.67;100685.88;5589870;31;32476;-65
2022/04/15 12:27:06;;;;;;;4.28;3.00;;;;;;;15.28;62.19;100678.47;5589400;31;34248;-65
2022/04/15 12:30:09;;;;;;;4.03;2.70;;;;;;;14.21;66.12;100673.84;5576291;31;34056;-65
2022/04/15 12:33:12;;;;;;;6.85;2.85;;;;;;;13.55;70.30;100672.84;5590305;31;33978;-65
2022/04/15 12:36:17;;;;;;;5.97;3.10;;;;;;;13.39;71.25;100663.16;5589674;31;30625;-66
2022/04/15 12:39:19;;;;;;;4.93;3.08;;;;;;;13.28;77.89;100660.06;5589361;31;34208;-66
2022/04/15 12:42:27;;;;;;;11.12;3.12;;;;;;;13.19;75.42;100667.31;5590336;31;33962;-65
2022/04/15 12:45:29;;;;;;;7.25;3.35;;;;;;;13.54;73.34;100659.69;5589541;31;32585;-66
2022/04/15 12:48:49;;;;;;;9.40;3.53;;;;;;;13.40;70.24;100653.31;5589857;31;34024;-65
2022/04/15 12:51:51;;;;;;;6.97;3.42;;;;;;;13.29;74.65;100651.91;5576599;31;32451;-66
2022/04/15 12:55:01;;;;;;;9.98;3.75;;;;;;;13.32;73.64;100650.72;5590085;31;34706;-66
2022/04/15 12:58:27;;;;;;;5.60;3.67;;;;;;;13.30;74.10;100661.56;5590532;31;34169;-65
2022/04/15 13:01:31;;;;;;;7.47;3.80;;;;;;;13.25;75.09;100653.28;5589898;31;34331;-65
2022/04/15 13:04:33;;;;;;;7.25;3.78;;;;;;;13.49;73.42;100654.91;5576280;31;32412;-65
2022/04/15 13:07:37;;;;;;;8.07;4.05;;;;;;;13.90;75.54;100650.84;5589512;31;33326;-65
2022/04/15 13:10:42;;;;;;;6.12;3.55;;;;;;;14.27;72.72;100657.13;5589363;31;32807;-65
2022/04/15 13:14:06;;;;;;;6.82;3.83;;;;;;;14.51;66.11;100656.84;5589354;31;33986;-65
2022/04/15 13:17:08;;;;;;;6.00;3.25;;;;;;;14.79;65.04;100654.28;5590020;31;34028;-65
2022/04/15 13:20:12;;;;;;;8.68;3.65;;;;;;;15.00;63.84;100646.31;5576466;31;32548;-65
2022/04/15 13:23:15;;;;;;;8.65;3.35;;;;;;;15.06;66.83;100642.03;5588854;31;33473;-65
2022/04/15 13:26:18;;;;;;;6.40;3.00;;;;;;;15.21;64.64;100645.47;5589768;31;35351;-65
2022/04/15 13:29:20;;;;;;;5.72;3.20;;;;;;;15.28;62.99;100641.03;5589636;31;34142;-66
2022/04/15 13:32:24;;;;;;;5.75;3.08;;;;;;;15.38;63.51;100646.87;5589945;31;33937;-64
2022/04/15 13:35:26;;;;;;;5.15;3.10;;;;;;;15.37;62.28;100636.38;5590003;31;34976;-66
2022/04/15 13:38:29;;;;;;;9.00;3.72;;;;;;;15.54;62.51;100635.91;5575826;31;32871;-65
2022/04/15 13:41:33;;;;;;;6.15;3.50;;;;;;;15.41;62.70;100638.47;5590038;31;33917;-65
2022/04/15 13:44:36;;;;;;;6.55;3.50;;;;;;;15.55;61.99;100631.41;5588980;31;32815;-65
2022/04/15 13:47:39;;;;;;;5.45;3.33;;;;;;;15.78;60.65;100633.87;5588778;31;33978;-64
2022/04/15 13:50:42;;;;;;;8.73;3.17;;;;;;;15.90;59.98;100643.81;5588574;31;34045;-65
2022/04/15 13:57:07;;;;;;;9.60;4.22;;;;;;;16.39;58.38;100635.66;5589559;31;35115;-66
2022/04/15 14:00:10;;;;;;;7.05;4.10;;;;;;;16.18;58.57;100634.91;5588225;31;34149;-65
2022/04/15 14:03:13;;;;;;;7.12;4.22;;;;;;;15.86;58.98;100634.53;5588849;31;33331;-65
2022/04/15 14:06:16;;;;;;;6.78;4.05;;;;;;;16.08;58.71;100632.59;5575533;31;32671;-65
2022/04/15 14:09:20;;;;;;;7.90;4.37;;;;;;;16.32;57.96;100629.41;5588390;31;33320;-65
2022/04/15 14:12:23;;;;;;;8.15;4.50;;;;;;;16.21;56.79;100635.38;5589333;31;34675;-65
2022/04/15 14:15:26;;;;;;;6.28;4.20;;;;;;;15.91;58.29;100636.63;5589308;31;33888;-65
2022/04/15 14:18:29;;;;;;;7.57;4.78;;;;;;;16.05;57.42;100627.63;5589386;31;33872;-64
2022/04/15 14:21:35;;;;;;;9.38;4.55;;;;;;;16.12;57.22;100622.34;5588383;31;33646;-64
2022/04/15 14:24:37;;;;;;;7.72;4.30;;;;;;;16.11;57.29;100626.03;5588613;31;34799;-65